createdAt,value
2019-04-22T00:00:02.890Z,99.90
2019-04-22T00:02:40.017Z,99.90
2019-04-22T00:05:16.396Z,99.90
2019-04-22T00:08:03.241Z,99.90
2019-04-22T00:10:40.729Z,99.90
2019-04-22T00:13:09.403Z,99.90
2019-04-22T00:15:34.227Z,99.90
2019-04-22T00:18:13.344Z,99.90
2019-04-22T00:20:42.285Z,99.90
2019-04-22T00:23:12.921Z,99.90
2019-04-22T00:25:53.949Z,99.90
2019-04-22T00:28:19.928Z,99.90
2019-04-22T00:30:47.099Z,99.90
2019-04-22T00:33:24.518Z,99.90
2019-04-22T00:35:54.514Z,99.90
2019-04-22T00:38:31.551Z,99.90
2019-04-22T00:41:00.518Z,99.90
2019-04-22T00:43:33.439Z,99.90
2019-04-22T00:45:55.775Z,99.90
2019-04-22T00:48:37.979Z,99.90
2019-04-22T00:51:10.035Z,99.90
2019-04-22T00:53:35.806Z,99.90
2019-04-22T00:58:40.750Z,99.90
2019-04-22T01:01:20.503Z,99.90
2019-04-22T01:03:51.098Z,99.90
2019-04-22T01:11:24.937Z,99.90
2019-04-22T01:13:49.538Z,99.90
2019-04-22T01:16:26.332Z,99.90
2019-04-22T01:18:57.463Z,99.90
2019-04-22T01:21:28.991Z,99.90
2019-04-22T01:23:57.561Z,99.90
2019-04-22T01:26:33.133Z,99.90
2019-04-22T01:28:59.572Z,99.90
2019-04-22T01:31:20.463Z,99.90
2019-04-22T01:34:04.345Z,99.90
2019-04-22T01:36:38.665Z,99.90
2019-04-22T01:39:15.400Z,99.90
2019-04-22T01:41:55.164Z,99.90
2019-04-22T01:46:50.699Z,99.90
2019-04-22T01:49:25.701Z,99.90
2019-04-22T01:52:01.492Z,99.90
2019-04-22T01:54:29.738Z,99.90
2019-04-22T01:56:58.416Z,99.90
2019-04-22T01:59:19.869Z,99.90
2019-04-22T02:04:39.740Z,99.90
2019-04-22T02:07:01.841Z,99.90
2019-04-22T02:09:38.087Z,99.90
2019-04-22T02:12:14.681Z,99.90
2019-04-22T02:14:39.922Z,99.90
2019-04-22T02:17:17.470Z,99.90
2019-04-22T02:19:52.224Z,99.90
2019-04-22T02:22:17.997Z,99.90
2019-04-22T02:24:46.692Z,99.90
2019-04-22T02:27:17.750Z,99.90
2019-04-22T02:29:47.426Z,99.90
2019-04-22T02:35:11.673Z,99.90
2019-04-22T02:37:23.467Z,99.90
2019-04-22T02:42:45.826Z,99.90
2019-04-22T02:47:49.927Z,99.90
2019-04-22T02:55:07.212Z,99.90
2019-04-22T02:57:55.083Z,99.90
2019-04-22T03:00:14.435Z,99.90
2019-04-22T03:02:50.859Z,99.90
2019-04-22T03:05:08.957Z,99.90
2019-04-22T03:07:55.820Z,99.90
2019-04-22T03:10:20.704Z,99.90
2019-04-22T03:12:41.144Z,99.90
2019-04-22T03:15:12.019Z,99.90
2019-04-22T03:17:57.937Z,99.90
2019-04-22T03:20:22.083Z,99.90
2019-04-22T03:22:55.455Z,99.90
2019-04-22T03:25:51.684Z,99.90
2019-04-22T03:27:52.507Z,99.90
2019-04-22T03:33:12.301Z,99.90
2019-04-22T03:38:18.485Z,99.90
2019-04-22T03:40:54.976Z,99.90
2019-04-22T03:43:13.719Z,99.90
2019-04-22T03:45:32.029Z,99.90
2019-04-22T03:48:07.888Z,99.90
2019-04-22T03:53:14.988Z,99.90
2019-04-22T03:55:49.057Z,99.90
2019-04-22T03:58:10.573Z,99.90
2019-04-22T04:01:06.048Z,99.90
2019-04-22T04:03:19.341Z,99.90
2019-04-22T04:06:06.654Z,99.90
2019-04-22T04:10:55.292Z,99.90
2019-04-22T04:13:23.132Z,99.90
2019-04-22T04:16:04.733Z,99.90
2019-04-22T04:18:39.180Z,99.90
2019-04-22T04:31:17.462Z,99.90
2019-04-22T04:33:50.930Z,99.90
2019-04-22T04:36:14.658Z,99.90
2019-04-22T04:38:46.531Z,99.90
2019-04-22T04:43:59.749Z,99.90
2019-04-22T04:46:27.104Z,99.90
2019-04-22T04:49:00.067Z,99.90
2019-04-22T04:54:01.065Z,99.90
2019-04-22T04:56:34.399Z,99.90
2019-04-22T04:59:06.330Z,99.90
2019-04-22T05:01:39.747Z,99.90
2019-04-22T05:04:04.622Z,99.90
2019-04-22T05:06:46.688Z,99.90
2019-04-22T05:09:15.034Z,99.90
2019-04-22T05:11:50.215Z,99.90
2019-04-22T05:14:17.282Z,99.90
2019-04-22T05:19:07.623Z,99.90
2019-04-22T05:21:29.863Z,99.90
2019-04-22T05:26:40.285Z,99.90
2019-04-22T05:29:15.023Z,99.90
2019-04-22T05:31:44.236Z,99.90
2019-04-22T05:34:14.422Z,99.90
2019-04-22T05:36:48.078Z,99.90
2019-04-22T05:41:43.418Z,99.90
2019-04-22T05:44:14.476Z,99.90
2019-04-22T05:46:50.560Z,99.90
2019-04-22T05:51:48.045Z,99.90
2019-04-22T05:56:41.250Z,99.30
2019-04-22T05:59:19.067Z,97.70
2019-04-22T06:04:14.728Z,94.60
2019-04-22T06:06:46.935Z,92.80
2019-04-22T06:11:36.257Z,90.90
2019-04-22T06:14:21.940Z,90.10
2019-04-22T06:16:58.673Z,88.80
2019-04-22T06:19:38.531Z,86.80
2019-04-22T06:22:15.447Z,86.00
2019-04-22T06:27:10.326Z,81.10
2019-04-22T06:29:25.013Z,81.10
2019-04-22T06:32:17.603Z,82.00
2019-04-22T06:34:28.879Z,82.80
2019-04-22T06:37:11.908Z,83.70
2019-04-22T06:39:34.186Z,83.30
2019-04-22T06:42:11.039Z,82.60
2019-04-22T06:44:36.957Z,79.50
2019-04-22T06:47:42.652Z,78.90
2019-04-22T06:49:43.805Z,80.00
2019-04-22T06:52:16.885Z,79.30
2019-04-22T06:57:13.470Z,78.60
2019-04-22T06:59:42.666Z,77.40
2019-04-22T07:02:24.022Z,76.60
2019-04-22T07:04:51.997Z,74.90
2019-04-22T07:07:18.669Z,75.70
2019-04-22T07:12:26.049Z,72.90
2019-04-22T07:14:49.015Z,71.30
2019-04-22T07:17:23.163Z,70.30
2019-04-22T07:19:47.541Z,72.00
2019-04-22T07:22:21.557Z,70.50
2019-04-22T07:24:55.934Z,71.30
2019-04-22T07:27:22.450Z,69.40
2019-04-22T07:32:58.113Z,69.70
2019-04-22T07:34:59.576Z,69.00
2019-04-22T07:39:56.890Z,66.10
2019-04-22T07:42:34.477Z,66.00
2019-04-22T07:44:54.859Z,64.40
2019-04-22T07:47:36.012Z,64.00
2019-04-22T07:50:03.284Z,62.60
2019-04-22T07:52:31.875Z,62.00
2019-04-22T07:55:02.611Z,64.00
2019-04-22T07:57:32.378Z,62.40
2019-04-22T08:02:41.655Z,59.30
2019-04-22T08:10:12.422Z,59.80
2019-04-22T08:15:05.699Z,58.70
2019-04-22T08:20:08.422Z,56.90
2019-04-22T08:28:13.330Z,56.60
2019-04-22T08:30:44.427Z,57.80
2019-04-22T08:33:17.315Z,56.40
2019-04-22T08:38:16.213Z,56.10
2019-04-22T08:41:39.200Z,56.90
2019-04-22T08:44:09.996Z,55.70
2019-04-22T08:47:08.662Z,55.70
2019-04-22T08:49:10.496Z,55.20
2019-04-22T08:51:42.546Z,54.80
2019-04-22T08:54:17.972Z,54.50
2019-04-22T08:59:19.835Z,53.30
2019-04-22T09:01:52.020Z,54.00
2019-04-22T09:04:16.249Z,53.70
2019-04-22T09:07:10.497Z,52.30
2019-04-22T09:09:27.064Z,52.20
2019-04-22T09:14:32.503Z,51.90
2019-04-22T09:17:14.772Z,50.30
2019-04-22T09:19:30.893Z,50.10
2019-04-22T09:22:04.985Z,50.80
2019-04-22T09:24:32.588Z,51.00
2019-04-22T09:27:03.456Z,50.30
2019-04-22T09:29:40.738Z,50.20
2019-04-22T09:32:11.584Z,49.90
2019-04-22T09:34:40.224Z,50.20
2019-04-22T09:37:36.390Z,50.70
2019-04-22T09:39:41.094Z,51.50
2019-04-22T09:42:13.763Z,50.30
2019-04-22T09:47:11.781Z,51.30
2019-04-22T09:49:53.174Z,51.20
2019-04-22T09:54:59.781Z,50.40
2019-04-22T09:57:27.840Z,50.40
2019-04-22T10:00:02.740Z,50.90
2019-04-22T10:02:34.381Z,51.40
2019-04-22T10:07:45.077Z,51.60
2019-04-22T10:10:09.982Z,51.40
2019-04-22T10:12:36.987Z,51.60
2019-04-22T10:15:19.647Z,51.80
2019-04-22T10:17:37.333Z,51.20
2019-04-22T10:25:14.562Z,51.90
2019-04-22T10:27:39.761Z,52.30
2019-04-22T10:30:15.128Z,51.40
2019-04-22T10:32:42.085Z,52.60
2019-04-22T10:35:15.599Z,51.60
2019-04-22T10:37:42.700Z,50.70
2019-04-22T10:40:19.598Z,50.80
2019-04-22T10:42:49.485Z,51.50
2019-04-22T10:45:18.553Z,51.30
2019-04-22T10:47:47.993Z,50.60
2019-04-22T10:50:18.488Z,50.10
2019-04-22T10:52:47.700Z,50.60
2019-04-22T10:55:17.234Z,50.30
2019-04-22T10:57:46.511Z,50.20
2019-04-22T11:00:15.719Z,51.10
2019-04-22T11:02:45.767Z,51.00
2019-04-22T11:05:16.488Z,51.30
2019-04-22T11:07:51.838Z,51.20
2019-04-22T11:10:34.583Z,51.50
2019-04-22T11:15:34.858Z,51.40
2019-04-22T11:18:05.234Z,51.90
2019-04-22T11:20:33.986Z,52.40
2019-04-22T11:23:04.351Z,51.90
2019-04-22T11:25:34.124Z,52.20
2019-04-22T11:28:02.931Z,52.40
2019-04-22T11:30:32.351Z,51.00
2019-04-22T11:33:02.457Z,51.20
2019-04-22T11:35:32.052Z,51.20
2019-04-22T11:38:01.176Z,51.40
2019-04-22T11:40:37.822Z,51.60
2019-04-22T11:43:01.906Z,51.20
2019-04-22T11:45:31.260Z,51.80
2019-04-22T11:48:01.478Z,50.90
2019-04-22T11:50:30.575Z,51.20
2019-04-22T11:53:00.766Z,51.60
2019-04-22T11:55:30.739Z,49.60
2019-04-22T11:58:01.055Z,49.80
2019-04-22T12:00:32.865Z,50.10
2019-04-22T12:03:03.035Z,49.80
2019-04-22T12:05:32.418Z,49.70
2019-04-22T12:08:01.174Z,49.60
2019-04-22T12:10:38.995Z,49.40
2019-04-22T12:13:01.945Z,49.90
2019-04-22T12:15:31.341Z,50.10
2019-04-22T12:18:01.476Z,50.70
2019-04-22T12:20:30.494Z,50.50
2019-04-22T12:23:01.024Z,50.40
2019-04-22T12:25:42.342Z,50.50
2019-04-22T12:28:01.093Z,50.40
2019-04-22T12:30:29.995Z,51.00
2019-04-22T12:33:00.090Z,51.50
2019-04-22T12:35:30.112Z,51.50
2019-04-22T12:38:04.339Z,51.20
2019-04-22T12:40:38.287Z,50.80
2019-04-22T12:43:04.134Z,51.70
2019-04-22T12:45:30.397Z,51.00
2019-04-22T12:48:00.090Z,50.60
2019-04-22T12:50:33.847Z,50.50
2019-04-22T12:53:04.861Z,50.50
2019-04-22T12:55:32.265Z,50.80
2019-04-22T12:58:01.307Z,50.80
2019-04-22T13:00:30.232Z,50.60
2019-04-22T13:02:59.219Z,50.30
2019-04-22T13:05:29.113Z,50.00
2019-04-22T13:07:58.030Z,50.10
2019-04-22T13:10:39.101Z,50.70
2019-04-22T13:12:58.617Z,49.80
2019-04-22T13:15:28.844Z,50.00
2019-04-22T13:18:06.001Z,50.50
2019-04-22T13:20:28.173Z,49.00
2019-04-22T13:22:57.100Z,49.30
2019-04-22T13:25:28.447Z,49.60
2019-04-22T13:27:57.520Z,49.20
2019-04-22T13:30:28.286Z,49.20
2019-04-22T13:32:57.107Z,48.70
2019-04-22T13:35:26.176Z,48.50
2019-04-22T13:37:57.346Z,47.70
2019-04-22T13:40:26.030Z,48.30
2019-04-22T13:42:55.571Z,49.00
2019-04-22T13:45:25.588Z,49.10
2019-04-22T13:48:11.174Z,49.20
2019-04-22T13:53:42.560Z,48.60
2019-04-22T13:55:51.159Z,47.70
2019-04-22T13:58:08.714Z,48.30
2019-04-22T14:00:31.075Z,47.20
2019-04-22T14:03:28.908Z,46.90
2019-04-22T14:06:04.917Z,47.10
2019-04-22T14:08:35.260Z,48.00
2019-04-22T14:11:16.933Z,47.80
2019-04-22T14:13:34.549Z,48.40
2019-04-22T14:16:04.751Z,46.90
2019-04-22T14:18:34.789Z,47.80
2019-04-22T14:21:04.962Z,48.20
2019-04-22T14:23:34.884Z,47.90
2019-04-22T14:26:05.011Z,47.90
2019-04-22T14:28:35.455Z,48.00
2019-04-22T14:31:04.762Z,47.90
2019-04-22T14:33:34.134Z,47.10
2019-04-22T14:36:04.676Z,47.50
2019-04-22T14:38:34.672Z,47.80
2019-04-22T14:41:05.747Z,47.90
2019-04-22T14:44:24.249Z,48.20
2019-04-22T14:46:27.578Z,48.10
2019-04-22T14:48:57.620Z,48.20
2019-04-22T14:51:22.271Z,47.80
2019-04-22T14:53:59.981Z,48.00
2019-04-22T14:56:06.612Z,48.00
2019-04-22T14:58:35.213Z,48.00
2019-04-22T15:01:04.642Z,48.30
2019-04-22T15:03:33.473Z,48.10
2019-04-22T15:06:02.330Z,48.90
2019-04-22T15:08:31.151Z,47.60
2019-04-22T15:11:00.396Z,47.70
2019-04-22T15:13:29.492Z,48.30
2019-04-22T15:16:23.814Z,47.30
2019-04-22T15:19:11.757Z,47.10
2019-04-22T15:21:40.983Z,48.30
2019-04-22T15:24:29.432Z,48.50
2019-04-22T15:29:39.483Z,48.50
2019-04-22T15:32:09.252Z,48.70
2019-04-22T15:34:39.524Z,48.90
2019-04-22T15:37:08.422Z,48.80
2019-04-22T15:39:37.370Z,47.60
2019-04-22T15:42:12.264Z,48.00
2019-04-22T15:44:37.690Z,47.60
2019-04-22T15:47:07.000Z,47.70
2019-04-22T15:49:36.360Z,47.70
2019-04-22T15:54:37.609Z,48.30
2019-04-22T15:57:06.761Z,48.60
2019-04-22T15:59:52.193Z,48.50
2019-04-22T16:02:08.098Z,49.10
2019-04-22T16:04:36.890Z,49.60
2019-04-22T16:07:07.184Z,50.00
2019-04-22T16:09:36.764Z,49.80
2019-04-22T16:12:16.176Z,50.00
2019-04-22T16:14:41.892Z,50.80
2019-04-22T16:17:06.563Z,51.20
2019-04-22T16:19:35.333Z,51.80
2019-04-22T16:22:09.358Z,52.30
2019-04-22T16:25:08.982Z,52.70
2019-04-22T16:27:38.529Z,52.30
2019-04-22T16:30:07.614Z,52.50
2019-04-22T16:35:18.766Z,51.80
2019-04-22T16:37:48.600Z,51.90
2019-04-22T16:40:18.615Z,52.00
2019-04-22T16:42:54.533Z,51.00
2019-04-22T16:45:17.984Z,51.50
2019-04-22T16:47:47.515Z,51.90
2019-04-22T16:50:16.129Z,52.20
2019-04-22T16:52:45.922Z,52.50
2019-04-22T16:55:14.842Z,52.40
2019-04-22T16:57:44.075Z,52.30
2019-04-22T17:00:13.884Z,52.60
2019-04-22T17:02:56.029Z,52.50
2019-04-22T17:05:41.546Z,52.30
2019-04-22T17:08:12.214Z,52.40
2019-04-22T17:10:41.914Z,52.50
2019-04-22T17:13:16.887Z,52.60
2019-04-22T17:15:42.148Z,53.50
2019-04-22T17:18:11.042Z,53.30
2019-04-22T17:20:40.424Z,53.40
2019-04-22T17:23:09.579Z,53.40
2019-04-22T17:25:38.490Z,53.90
2019-04-22T17:28:07.780Z,53.10
2019-04-22T17:30:36.534Z,52.20
2019-04-22T17:33:05.398Z,53.00
2019-04-22T17:35:34.294Z,52.80
2019-04-22T17:38:14.295Z,53.00
2019-04-22T17:43:47.975Z,53.30
2019-04-22T17:46:12.049Z,53.30
2019-04-22T17:49:00.851Z,53.80
2019-04-22T17:51:31.493Z,54.50
2019-04-22T17:54:02.387Z,53.90
2019-04-22T17:56:32.432Z,54.50
2019-04-22T17:59:04.940Z,54.90
2019-04-22T18:01:32.669Z,55.60
2019-04-22T18:03:49.629Z,54.60
2019-04-22T18:06:44.062Z,54.90
2019-04-22T18:09:05.094Z,55.40
2019-04-22T18:11:44.644Z,55.20
2019-04-22T18:14:25.861Z,55.10
2019-04-22T18:16:44.052Z,55.30
2019-04-22T18:19:10.105Z,55.50
2019-04-22T18:21:40.660Z,55.60
2019-04-22T18:24:06.793Z,56.10
2019-04-22T18:26:43.704Z,56.00
2019-04-22T18:29:16.289Z,56.30
2019-04-22T18:31:35.339Z,56.50
2019-04-22T18:34:10.031Z,56.30
2019-04-22T18:36:40.571Z,56.30
2019-04-22T18:39:22.337Z,56.30
2019-04-22T18:41:48.422Z,56.00
2019-04-22T18:44:23.560Z,56.60
2019-04-22T18:46:52.377Z,56.30
2019-04-22T18:49:30.754Z,56.80
2019-04-22T18:52:18.469Z,57.10
2019-04-22T18:55:07.146Z,57.00
2019-04-22T18:58:08.478Z,57.00
2019-04-22T19:00:31.551Z,58.20
2019-04-22T19:03:08.929Z,56.90
2019-04-22T19:05:54.399Z,56.90
2019-04-22T19:08:28.687Z,58.00
2019-04-22T19:11:07.557Z,57.30
2019-04-22T19:16:15.186Z,57.50
2019-04-22T19:18:37.938Z,57.70
2019-04-22T19:21:07.970Z,57.20
2019-04-22T19:23:31.944Z,57.60
2019-04-22T19:26:15.491Z,56.90
2019-04-22T19:28:43.843Z,56.70
2019-04-22T19:31:13.796Z,56.30
2019-04-22T19:33:49.280Z,56.40
2019-04-22T19:36:14.694Z,56.50
2019-04-22T19:38:38.367Z,56.70
2019-04-22T19:41:19.743Z,57.00
2019-04-22T19:43:49.200Z,57.00
2019-04-22T19:46:18.252Z,57.10
2019-04-22T19:48:56.519Z,57.30
2019-04-22T19:51:32.013Z,57.40
2019-04-22T19:53:56.087Z,57.60
2019-04-22T19:56:22.683Z,57.80
2019-04-22T19:58:59.123Z,58.10
2019-04-22T20:01:56.878Z,57.90
2019-04-22T20:04:52.674Z,58.00
2019-04-22T20:07:17.825Z,58.20
2019-04-22T20:09:52.463Z,58.20
2019-04-22T20:12:18.457Z,58.00
2019-04-22T20:14:49.508Z,58.30
2019-04-22T20:17:26.584Z,58.30
2019-04-22T20:20:17.608Z,58.70
2019-04-22T20:22:23.355Z,58.60
2019-04-22T20:24:47.472Z,58.50
2019-04-22T20:27:33.200Z,58.70
2019-04-22T20:30:11.827Z,58.70
2019-04-22T20:32:35.631Z,59.00
2019-04-22T20:35:07.465Z,59.10
2019-04-22T20:37:42.642Z,59.40
2019-04-22T20:40:10.546Z,59.80
2019-04-22T20:45:11.758Z,60.00
2019-04-22T20:47:34.611Z,60.60
2019-04-22T20:50:15.982Z,60.40
2019-04-22T20:52:47.196Z,59.70
2019-04-22T20:55:08.023Z,59.30
2019-04-22T20:57:48.459Z,58.00
2019-04-22T21:00:11.989Z,57.70
2019-04-22T21:02:37.479Z,57.70
2019-04-22T21:05:03.191Z,57.80
2019-04-22T21:07:41.341Z,58.10
2019-04-22T21:10:14.544Z,58.50
2019-04-22T21:12:39.984Z,58.10
2019-04-22T21:15:28.453Z,57.80
2019-04-22T21:17:54.159Z,57.60
2019-04-22T21:20:26.161Z,57.60
2019-04-22T21:22:58.328Z,58.10
2019-04-22T21:25:21.938Z,58.10
2019-04-22T21:27:56.852Z,58.20
2019-04-22T21:30:32.285Z,58.20
2019-04-22T21:32:58.249Z,58.50
2019-04-22T21:35:50.318Z,58.30
2019-04-22T21:38:09.782Z,58.20
2019-04-22T21:40:35.587Z,58.30
2019-04-22T21:43:13.650Z,58.30
2019-04-22T21:45:35.369Z,58.40
2019-04-22T21:48:20.268Z,58.60
2019-04-22T21:53:29.314Z,58.80
2019-04-22T21:55:53.406Z,59.00
2019-04-22T21:58:34.617Z,60.40
2019-04-22T22:01:14.582Z,59.40
2019-04-22T22:03:42.932Z,59.60
2019-04-22T22:06:05.919Z,59.70
2019-04-22T22:08:45.978Z,60.00
2019-04-22T22:11:15.438Z,60.10
2019-04-22T22:13:48.836Z,60.50
2019-04-22T22:16:14.367Z,60.60
2019-04-22T22:18:55.285Z,60.80
2019-04-22T22:23:59.482Z,61.10
2019-04-22T22:26:19.227Z,61.30
2019-04-22T22:29:18.715Z,61.90
2019-04-22T22:31:37.635Z,62.00
2019-04-22T22:34:06.024Z,62.20
2019-04-22T22:36:27.148Z,61.80
2019-04-22T22:39:00.393Z,62.00
2019-04-22T22:41:14.125Z,62.10
2019-04-22T22:43:49.047Z,62.30
2019-04-22T22:46:29.236Z,62.80
2019-04-22T22:49:10.261Z,63.50
2019-04-22T22:51:47.479Z,64.00
2019-04-22T22:54:12.239Z,63.90
2019-04-22T22:56:47.477Z,64.20
2019-04-22T22:59:08.116Z,64.30
2019-04-22T23:01:46.882Z,64.50
2019-04-22T23:04:20.990Z,64.60
2019-04-22T23:06:53.331Z,65.10
2019-04-22T23:09:22.561Z,65.20
2019-04-22T23:12:06.113Z,65.70
2019-04-22T23:14:20.378Z,65.70
2019-04-22T23:16:41.919Z,65.80
2019-04-22T23:19:05.135Z,66.00
2019-04-22T23:21:43.296Z,66.10
2019-04-22T23:24:44.067Z,66.20
2019-04-22T23:27:16.063Z,66.40
2019-04-22T23:29:49.648Z,67.00
2019-04-22T23:32:21.293Z,68.50
2019-04-22T23:35:07.600Z,68.80
2019-04-22T23:37:39.632Z,68.50
2019-04-22T23:40:16.181Z,69.30
2019-04-22T23:42:44.607Z,69.10
2019-04-22T23:45:13.914Z,69.30
2019-04-22T23:47:35.157Z,69.00
2019-04-22T23:50:21.028Z,69.90
2019-04-22T23:52:52.945Z,69.60
2019-04-22T23:55:29.840Z,69.60
2019-04-22T23:58:11.999Z,69.40
